sensor_id;sensor_type;location;lat;lon;timestamp;P1;durP1;ratioP1;P2;durP2;ratioP2
78858;SDS011;68210;52.032;4.634;2023-05-07T00:00:29;45.83;;;24.88;;
78858;SDS011;68210;52.032;4.634;2023-05-07T00:02:29;40.40;;;23.27;;
78858;SDS011;68210;52.032;4.634;2023-05-07T00:04:30;46.08;;;25.45;;
78858;SDS011;68210;52.032;4.634;2023-05-07T00:06:36;36.13;;;19.75;;
78858;SDS011;68210;52.032;4.634;2023-05-07T00:08:37;43.58;;;24.85;;
78858;SDS011;68210;52.032;4.634;2023-05-07T00:10:37;45.45;;;25.02;;
78858;SDS011;68210;52.032;4.634;2023-05-07T00:12:38;52.55;;;28.02;;
78858;SDS011;68210;52.032;4.634;2023-05-07T00:14:38;35.42;;;20.25;;
78858;SDS011;68210;52.032;4.634;2023-05-07T00:16:39;43.28;;;23.50;;
78858;SDS011;68210;52.032;4.634;2023-05-07T00:18:39;33.05;;;20.25;;
78858;SDS011;68210;52.032;4.634;2023-05-07T00:20:39;32.72;;;18.90;;
78858;SDS011;68210;52.032;4.634;2023-05-07T00:22:40;49.05;;;26.13;;
78858;SDS011;68210;52.032;4.634;2023-05-07T00:24:40;44.05;;;23.85;;
78858;SDS011;68210;52.032;4.634;2023-05-07T00:26:41;41.15;;;23.60;;
78858;SDS011;68210;52.032;4.634;2023-05-07T00:28:41;41.92;;;23.73;;
78858;SDS011;68210;52.032;4.634;2023-05-07T00:30:41;47.80;;;24.45;;
78858;SDS011;68210;52.032;4.634;2023-05-07T00:32:42;43.50;;;24.35;;
78858;SDS011;68210;52.032;4.634;2023-05-07T00:34:45;49.17;;;23.77;;
78858;SDS011;68210;52.032;4.634;2023-05-07T00:36:45;37.90;;;22.50;;
78858;SDS011;68210;52.032;4.634;2023-05-07T00:38:46;41.45;;;23.15;;
78858;SDS011;68210;52.032;4.634;2023-05-07T00:40:46;41.72;;;22.02;;
78858;SDS011;68210;52.032;4.634;2023-05-07T00:42:46;35.92;;;21.40;;
78858;SDS011;68210;52.032;4.634;2023-05-07T00:46:50;32.83;;;18.50;;
78858;SDS011;68210;52.032;4.634;2023-05-07T00:48:50;34.92;;;19.70;;
78858;SDS011;68210;52.032;4.634;2023-05-07T00:50:51;37.33;;;20.17;;
78858;SDS011;68210;52.032;4.634;2023-05-07T00:52:52;37.40;;;20.15;;
78858;SDS011;68210;52.032;4.634;2023-05-07T00:54:53;38.40;;;21.58;;
78858;SDS011;68210;52.032;4.634;2023-05-07T00:56:53;34.63;;;19.10;;
78858;SDS011;68210;52.032;4.634;2023-05-07T00:58:55;44.63;;;24.48;;
78858;SDS011;68210;52.032;4.634;2023-05-07T01:00:55;41.03;;;22.73;;
78858;SDS011;68210;52.032;4.634;2023-05-07T01:02:56;40.72;;;21.02;;
78858;SDS011;68210;52.032;4.634;2023-05-07T01:04:56;32.78;;;19.65;;
78858;SDS011;68210;52.032;4.634;2023-05-07T01:06:56;36.50;;;21.20;;
78858;SDS011;68210;52.032;4.634;2023-05-07T01:08:59;37.05;;;20.73;;
78858;SDS011;68210;52.032;4.634;2023-05-07T01:11:01;36.33;;;19.85;;
78858;SDS011;68210;52.032;4.634;2023-05-07T01:13:02;34.55;;;19.20;;
78858;SDS011;68210;52.032;4.634;2023-05-07T01:15:03;39.35;;;20.95;;
78858;SDS011;68210;52.032;4.634;2023-05-07T01:17:07;37.53;;;19.67;;
78858;SDS011;68210;52.032;4.634;2023-05-07T01:19:08;35.90;;;20.25;;
78858;SDS011;68210;52.032;4.634;2023-05-07T01:21:10;34.90;;;21.05;;
78858;SDS011;68210;52.032;4.634;2023-05-07T01:23:11;36.25;;;19.95;;
78858;SDS011;68210;52.032;4.634;2023-05-07T01:25:12;34.65;;;20.30;;
78858;SDS011;68210;52.032;4.634;2023-05-07T01:27:13;37.53;;;20.92;;
78858;SDS011;68210;52.032;4.634;2023-05-07T01:29:13;38.25;;;20.17;;
78858;SDS011;68210;52.032;4.634;2023-05-07T01:31:14;33.90;;;18.83;;
78858;SDS011;68210;52.032;4.634;2023-05-07T01:33:17;36.20;;;20.50;;
78858;SDS011;68210;52.032;4.634;2023-05-07T01:35:22;28.90;;;18.00;;
78858;SDS011;68210;52.032;4.634;2023-05-07T01:37:26;31.20;;;18.58;;
78858;SDS011;68210;52.032;4.634;2023-05-07T01:39:27;30.00;;;19.30;;
78858;SDS011;68210;52.032;4.634;2023-05-07T01:41:29;33.15;;;19.55;;
78858;SDS011;68210;52.032;4.634;2023-05-07T01:43:30;34.65;;;20.42;;
78858;SDS011;68210;52.032;4.634;2023-05-07T01:45:30;37.03;;;22.17;;
78858;SDS011;68210;52.032;4.634;2023-05-07T01:47:32;33.13;;;20.95;;
78858;SDS011;68210;52.032;4.634;2023-05-07T01:49:33;39.67;;;22.67;;
78858;SDS011;68210;52.032;4.634;2023-05-07T01:51:34;34.65;;;21.65;;
78858;SDS011;68210;52.032;4.634;2023-05-07T01:53:36;30.95;;;19.40;;
78858;SDS011;68210;52.032;4.634;2023-05-07T01:55:36;34.60;;;21.65;;
78858;SDS011;68210;52.032;4.634;2023-05-07T01:57:37;37.90;;;22.90;;
78858;SDS011;68210;52.032;4.634;2023-05-07T01:59:37;33.55;;;21.50;;
78858;SDS011;68210;52.032;4.634;2023-05-07T02:01:38;36.13;;;23.48;;
78858;SDS011;68210;52.032;4.634;2023-05-07T02:03:38;31.20;;;19.40;;
78858;SDS011;68210;52.032;4.634;2023-05-07T02:05:38;34.38;;;20.73;;
78858;SDS011;68210;52.032;4.634;2023-05-07T02:07:39;29.90;;;19.75;;
78858;SDS011;68210;52.032;4.634;2023-05-07T02:09:39;33.38;;;21.20;;
78858;SDS011;68210;52.032;4.634;2023-05-07T02:11:39;30.00;;;20.20;;
78858;SDS011;68210;52.032;4.634;2023-05-07T02:13:40;33.08;;;22.13;;
78858;SDS011;68210;52.032;4.634;2023-05-07T02:15:41;29.98;;;19.95;;
78858;SDS011;68210;52.032;4.634;2023-05-07T02:20:02;34.78;;;21.00;;
78858;SDS011;68210;52.032;4.634;2023-05-07T02:22:03;28.65;;;18.35;;
78858;SDS011;68210;52.032;4.634;2023-05-07T02:24:04;26.00;;;17.52;;
78858;SDS011;68210;52.032;4.634;2023-05-07T02:26:05;25.52;;;16.83;;
78858;SDS011;68210;52.032;4.634;2023-05-07T02:28:05;24.48;;;16.88;;
78858;SDS011;68210;52.032;4.634;2023-05-07T02:30:06;27.13;;;18.25;;
78858;SDS011;68210;52.032;4.634;2023-05-07T02:32:06;25.58;;;16.38;;
78858;SDS011;68210;52.032;4.634;2023-05-07T02:34:07;27.92;;;18.88;;
78858;SDS011;68210;52.032;4.634;2023-05-07T02:36:08;20.65;;;15.15;;
78858;SDS011;68210;52.032;4.634;2023-05-07T02:38:09;20.67;;;14.77;;
78858;SDS011;68210;52.032;4.634;2023-05-07T02:40:10;25.83;;;16.08;;
78858;SDS011;68210;52.032;4.634;2023-05-07T02:42:11;23.85;;;15.95;;
78858;SDS011;68210;52.032;4.634;2023-05-07T02:44:12;18.10;;;13.38;;
78858;SDS011;68210;52.032;4.634;2023-05-07T02:46:12;21.30;;;15.57;;
78858;SDS011;68210;52.032;4.634;2023-05-07T02:48:12;20.55;;;14.80;;
78858;SDS011;68210;52.032;4.634;2023-05-07T02:50:13;22.17;;;15.65;;
78858;SDS011;68210;52.032;4.634;2023-05-07T02:52:15;21.40;;;15.52;;
78858;SDS011;68210;52.032;4.634;2023-05-07T02:54:15;19.23;;;13.68;;
78858;SDS011;68210;52.032;4.634;2023-05-07T02:56:15;18.30;;;13.68;;
78858;SDS011;68210;52.032;4.634;2023-05-07T02:58:16;19.33;;;13.80;;
78858;SDS011;68210;52.032;4.634;2023-05-07T03:00:17;18.52;;;13.55;;
78858;SDS011;68210;52.032;4.634;2023-05-07T03:04:20;21.40;;;14.68;;
78858;SDS011;68210;52.032;4.634;2023-05-07T03:06:20;19.88;;;13.50;;
78858;SDS011;68210;52.032;4.634;2023-05-07T03:08:21;24.23;;;17.05;;
78858;SDS011;68210;52.032;4.634;2023-05-07T03:10:21;18.58;;;13.25;;
78858;SDS011;68210;52.032;4.634;2023-05-07T03:12:21;22.23;;;16.48;;
78858;SDS011;68210;52.032;4.634;2023-05-07T03:14:22;22.90;;;15.60;;
78858;SDS011;68210;52.032;4.634;2023-05-07T03:16:22;22.40;;;16.10;;
78858;SDS011;68210;52.032;4.634;2023-05-07T03:18:22;22.40;;;15.93;;
78858;SDS011;68210;52.032;4.634;2023-05-07T03:20:23;20.25;;;15.52;;
78858;SDS011;68210;52.032;4.634;2023-05-07T03:22:23;21.10;;;14.02;;
78858;SDS011;68210;52.032;4.634;2023-05-07T03:24:23;19.83;;;14.23;;
78858;SDS011;68210;52.032;4.634;2023-05-07T03:26:24;18.70;;;14.48;;
78858;SDS011;68210;52.032;4.634;2023-05-07T03:28:25;18.27;;;14.27;;
78858;SDS011;68210;52.032;4.634;2023-05-07T03:30:25;22.00;;;14.60;;
78858;SDS011;68210;52.032;4.634;2023-05-07T03:32:26;18.13;;;13.27;;
78858;SDS011;68210;52.032;4.634;2023-05-07T03:34:26;18.35;;;12.77;;
78858;SDS011;68210;52.032;4.634;2023-05-07T03:36:26;23.75;;;16.63;;
78858;SDS011;68210;52.032;4.634;2023-05-07T03:38:27;24.50;;;17.15;;
78858;SDS011;68210;52.032;4.634;2023-05-07T03:40:27;21.77;;;16.55;;
78858;SDS011;68210;52.032;4.634;2023-05-07T03:42:28;21.02;;;15.55;;
78858;SDS011;68210;52.032;4.634;2023-05-07T03:44:29;24.52;;;15.85;;
78858;SDS011;68210;52.032;4.634;2023-05-07T03:46:29;17.70;;;14.43;;
78858;SDS011;68210;52.032;4.634;2023-05-07T03:48:29;19.88;;;14.82;;
78858;SDS011;68210;52.032;4.634;2023-05-07T03:50:30;19.35;;;13.70;;
78858;SDS011;68210;52.032;4.634;2023-05-07T03:52:30;19.45;;;14.20;;
78858;SDS011;68210;52.032;4.634;2023-05-07T03:54:30;18.92;;;14.60;;
78858;SDS011;68210;52.032;4.634;2023-05-07T03:56:31;20.67;;;15.02;;
78858;SDS011;68210;52.032;4.634;2023-05-07T03:58:31;22.77;;;15.77;;
78858;SDS011;68210;52.032;4.634;2023-05-07T04:00:32;21.05;;;14.70;;
78858;SDS011;68210;52.032;4.634;2023-05-07T04:02:37;18.83;;;14.18;;
78858;SDS011;68210;52.032;4.634;2023-05-07T04:04:37;16.73;;;13.43;;
78858;SDS011;68210;52.032;4.634;2023-05-07T04:06:37;16.40;;;11.80;;
78858;SDS011;68210;52.032;4.634;2023-05-07T04:08:38;19.30;;;13.55;;
78858;SDS011;68210;52.032;4.634;2023-05-07T04:10:38;18.15;;;13.02;;
78858;SDS011;68210;52.032;4.634;2023-05-07T04:12:38;24.33;;;15.52;;
78858;SDS011;68210;52.032;4.634;2023-05-07T04:14:39;19.33;;;13.05;;
78858;SDS011;68210;52.032;4.634;2023-05-07T04:16:39;21.77;;;15.38;;
78858;SDS011;68210;52.032;4.634;2023-05-07T04:18:39;18.80;;;13.32;;
78858;SDS011;68210;52.032;4.634;2023-05-07T04:20:40;16.92;;;13.07;;
78858;SDS011;68210;52.032;4.634;2023-05-07T04:22:40;20.63;;;13.95;;
78858;SDS011;68210;52.032;4.634;2023-05-07T04:24:41;18.52;;;13.75;;
78858;SDS011;68210;52.032;4.634;2023-05-07T04:26:41;19.10;;;13.55;;
78858;SDS011;68210;52.032;4.634;2023-05-07T04:28:42;18.77;;;13.18;;
78858;SDS011;68210;52.032;4.634;2023-05-07T04:30:42;21.08;;;13.68;;
78858;SDS011;68210;52.032;4.634;2023-05-07T04:32:42;19.55;;;14.85;;
78858;SDS011;68210;52.032;4.634;2023-05-07T04:34:44;16.70;;;11.82;;
78858;SDS011;68210;52.032;4.634;2023-05-07T04:36:45;19.67;;;12.80;;
78858;SDS011;68210;52.032;4.634;2023-05-07T04:38:46;23.42;;;15.20;;
78858;SDS011;68210;52.032;4.634;2023-05-07T04:40:46;20.08;;;15.80;;
78858;SDS011;68210;52.032;4.634;2023-05-07T04:42:46;18.50;;;12.85;;
78858;SDS011;68210;52.032;4.634;2023-05-07T04:44:47;21.88;;;14.48;;
78858;SDS011;68210;52.032;4.634;2023-05-07T04:46:47;18.40;;;13.68;;
78858;SDS011;68210;52.032;4.634;2023-05-07T04:48:47;19.77;;;14.43;;
78858;SDS011;68210;52.032;4.634;2023-05-07T04:50:48;21.00;;;14.68;;
78858;SDS011;68210;52.032;4.634;2023-05-07T04:52:52;17.70;;;13.60;;
78858;SDS011;68210;52.032;4.634;2023-05-07T04:54:52;17.80;;;13.02;;
78858;SDS011;68210;52.032;4.634;2023-05-07T04:56:52;18.45;;;12.90;;
78858;SDS011;68210;52.032;4.634;2023-05-07T04:58:53;19.98;;;15.10;;
78858;SDS011;68210;52.032;4.634;2023-05-07T05:00:53;19.30;;;13.38;;
78858;SDS011;68210;52.032;4.634;2023-05-07T05:02:54;21.25;;;14.55;;
78858;SDS011;68210;52.032;4.634;2023-05-07T05:04:54;18.17;;;12.77;;
78858;SDS011;68210;52.032;4.634;2023-05-07T05:06:54;21.25;;;13.95;;
78858;SDS011;68210;52.032;4.634;2023-05-07T05:08:55;19.25;;;13.35;;
78858;SDS011;68210;52.032;4.634;2023-05-07T05:10:55;17.70;;;12.85;;
78858;SDS011;68210;52.032;4.634;2023-05-07T05:12:56;18.23;;;13.15;;
78858;SDS011;68210;52.032;4.634;2023-05-07T05:14:56;21.08;;;14.93;;
78858;SDS011;68210;52.032;4.634;2023-05-07T05:16:56;20.83;;;13.93;;
78858;SDS011;68210;52.032;4.634;2023-05-07T05:18:57;18.98;;;12.75;;
78858;SDS011;68210;52.032;4.634;2023-05-07T05:20:57;21.50;;;14.48;;
78858;SDS011;68210;52.032;4.634;2023-05-07T05:22:57;17.13;;;12.95;;
78858;SDS011;68210;52.032;4.634;2023-05-07T05:24:58;19.17;;;13.73;;
78858;SDS011;68210;52.032;4.634;2023-05-07T05:26:58;23.27;;;16.60;;
78858;SDS011;68210;52.032;4.634;2023-05-07T05:31:01;18.60;;;13.10;;
78858;SDS011;68210;52.032;4.634;2023-05-07T05:33:01;19.23;;;13.15;;
78858;SDS011;68210;52.032;4.634;2023-05-07T05:35:02;23.58;;;15.75;;
78858;SDS011;68210;52.032;4.634;2023-05-07T05:37:02;20.52;;;15.32;;
78858;SDS011;68210;52.032;4.634;2023-05-07T05:39:03;22.58;;;16.38;;
78858;SDS011;68210;52.032;4.634;2023-05-07T05:41:03;20.58;;;14.15;;
78858;SDS011;68210;52.032;4.634;2023-05-07T05:43:04;21.23;;;15.60;;
78858;SDS011;68210;52.032;4.634;2023-05-07T05:45:04;20.58;;;14.45;;
78858;SDS011;68210;52.032;4.634;2023-05-07T05:47:05;24.00;;;15.45;;
78858;SDS011;68210;52.032;4.634;2023-05-07T05:49:05;24.70;;;16.55;;
78858;SDS011;68210;52.032;4.634;2023-05-07T05:51:06;27.17;;;16.73;;
78858;SDS011;68210;52.032;4.634;2023-05-07T05:53:07;24.63;;;16.42;;
78858;SDS011;68210;52.032;4.634;2023-05-07T05:55:08;26.45;;;17.33;;
78858;SDS011;68210;52.032;4.634;2023-05-07T05:57:08;25.42;;;17.10;;
78858;SDS011;68210;52.032;4.634;2023-05-07T05:59:09;26.35;;;17.77;;
78858;SDS011;68210;52.032;4.634;2023-05-07T06:01:10;26.88;;;19.58;;
78858;SDS011;68210;52.032;4.634;2023-05-07T06:03:11;36.40;;;21.08;;
78858;SDS011;68210;52.032;4.634;2023-05-07T06:05:12;23.15;;;17.02;;
78858;SDS011;68210;52.032;4.634;2023-05-07T06:07:12;29.35;;;19.75;;
78858;SDS011;68210;52.032;4.634;2023-05-07T06:09:13;25.85;;;18.23;;
78858;SDS011;68210;52.032;4.634;2023-05-07T06:11:13;28.20;;;17.70;;
78858;SDS011;68210;52.032;4.634;2023-05-07T06:13:13;27.92;;;17.85;;
78858;SDS011;68210;52.032;4.634;2023-05-07T06:15:14;27.60;;;18.08;;
78858;SDS011;68210;52.032;4.634;2023-05-07T06:17:14;27.60;;;18.85;;
78858;SDS011;68210;52.032;4.634;2023-05-07T06:19:14;29.13;;;19.65;;
78858;SDS011;68210;52.032;4.634;2023-05-07T06:21:18;29.13;;;19.77;;
78858;SDS011;68210;52.032;4.634;2023-05-07T06:23:18;30.48;;;19.88;;
78858;SDS011;68210;52.032;4.634;2023-05-07T06:25:20;27.95;;;19.90;;
78858;SDS011;68210;52.032;4.634;2023-05-07T06:27:20;34.72;;;21.83;;
78858;SDS011;68210;52.032;4.634;2023-05-07T06:29:20;31.98;;;20.95;;
78858;SDS011;68210;52.032;4.634;2023-05-07T06:31:21;30.73;;;20.67;;
78858;SDS011;68210;52.032;4.634;2023-05-07T06:33:21;27.50;;;17.77;;
78858;SDS011;68210;52.032;4.634;2023-05-07T06:35:21;26.83;;;18.58;;
78858;SDS011;68210;52.032;4.634;2023-05-07T06:37:22;31.42;;;20.15;;
78858;SDS011;68210;52.032;4.634;2023-05-07T06:39:22;28.50;;;20.02;;
78858;SDS011;68210;52.032;4.634;2023-05-07T06:41:22;28.10;;;19.73;;
78858;SDS011;68210;52.032;4.634;2023-05-07T06:43:23;30.38;;;21.60;;
78858;SDS011;68210;52.032;4.634;2023-05-07T06:45:23;31.90;;;21.02;;
78858;SDS011;68210;52.032;4.634;2023-05-07T06:47:25;28.08;;;18.60;;
78858;SDS011;68210;52.032;4.634;2023-05-07T06:49:25;29.55;;;20.35;;
78858;SDS011;68210;52.032;4.634;2023-05-07T06:51:25;27.48;;;18.42;;
78858;SDS011;68210;52.032;4.634;2023-05-07T06:53:26;32.42;;;21.25;;
78858;SDS011;68210;52.032;4.634;2023-05-07T06:55:28;32.83;;;21.23;;
78858;SDS011;68210;52.032;4.634;2023-05-07T06:57:28;34.75;;;22.38;;
78858;SDS011;68210;52.032;4.634;2023-05-07T06:59:28;32.08;;;20.75;;
78858;SDS011;68210;52.032;4.634;2023-05-07T07:01:29;34.83;;;21.42;;
78858;SDS011;68210;52.032;4.634;2023-05-07T07:03:29;31.15;;;20.80;;
78858;SDS011;68210;52.032;4.634;2023-05-07T07:05:30;34.30;;;22.20;;
78858;SDS011;68210;52.032;4.634;2023-05-07T07:07:30;31.27;;;20.63;;
78858;SDS011;68210;52.032;4.634;2023-05-07T07:09:31;31.10;;;20.25;;
78858;SDS011;68210;52.032;4.634;2023-05-07T07:11:32;34.55;;;21.23;;
78858;SDS011;68210;52.032;4.634;2023-05-07T07:13:32;27.83;;;18.08;;
78858;SDS011;68210;52.032;4.634;2023-05-07T07:15:33;29.92;;;18.70;;
78858;SDS011;68210;52.032;4.634;2023-05-07T07:17:33;31.17;;;20.73;;
78858;SDS011;68210;52.032;4.634;2023-05-07T07:19:33;25.60;;;18.42;;
78858;SDS011;68210;52.032;4.634;2023-05-07T07:21:34;30.50;;;21.23;;
78858;SDS011;68210;52.032;4.634;2023-05-07T07:23:35;23.58;;;16.55;;
78858;SDS011;68210;52.032;4.634;2023-05-07T07:25:35;24.13;;;16.90;;
78858;SDS011;68210;52.032;4.634;2023-05-07T07:27:35;26.20;;;17.92;;
78858;SDS011;68210;52.032;4.634;2023-05-07T07:29:36;23.35;;;16.17;;
78858;SDS011;68210;52.032;4.634;2023-05-07T07:31:36;25.92;;;16.38;;
78858;SDS011;68210;52.032;4.634;2023-05-07T07:33:37;25.52;;;16.48;;
78858;SDS011;68210;52.032;4.634;2023-05-07T07:35:37;20.25;;;14.18;;
78858;SDS011;68210;52.032;4.634;2023-05-07T07:37:38;22.35;;;15.73;;
78858;SDS011;68210;52.032;4.634;2023-05-07T07:39:38;23.50;;;15.00;;
78858;SDS011;68210;52.032;4.634;2023-05-07T07:41:38;19.77;;;13.82;;
78858;SDS011;68210;52.032;4.634;2023-05-07T07:43:39;22.40;;;15.00;;
78858;SDS011;68210;52.032;4.634;2023-05-07T07:45:39;27.65;;;19.10;;
78858;SDS011;68210;52.032;4.634;2023-05-07T07:47:39;24.13;;;16.38;;
78858;SDS011;68210;52.032;4.634;2023-05-07T07:49:40;20.30;;;14.20;;
78858;SDS011;68210;52.032;4.634;2023-05-07T07:51:40;20.67;;;15.13;;
78858;SDS011;68210;52.032;4.634;2023-05-07T07:53:41;17.38;;;12.02;;
78858;SDS011;68210;52.032;4.634;2023-05-07T07:55:41;20.90;;;13.98;;
78858;SDS011;68210;52.032;4.634;2023-05-07T07:57:41;21.40;;;14.23;;
78858;SDS011;68210;52.032;4.634;2023-05-07T07:59:42;17.58;;;12.15;;
78858;SDS011;68210;52.032;4.634;2023-05-07T08:01:43;20.00;;;13.88;;
78858;SDS011;68210;52.032;4.634;2023-05-07T08:03:43;17.55;;;12.45;;
78858;SDS011;68210;52.032;4.634;2023-05-07T08:05:44;14.88;;;11.02;;
78858;SDS011;68210;52.032;4.634;2023-05-07T08:07:44;13.73;;;9.43;;
78858;SDS011;68210;52.032;4.634;2023-05-07T08:09:46;13.80;;;9.70;;
78858;SDS011;68210;52.032;4.634;2023-05-07T08:11:46;17.25;;;11.27;;
78858;SDS011;68210;52.032;4.634;2023-05-07T08:13:47;16.90;;;10.93;;
78858;SDS011;68210;52.032;4.634;2023-05-07T08:15:47;12.38;;;9.63;;
78858;SDS011;68210;52.032;4.634;2023-05-07T08:17:48;17.90;;;10.95;;
78858;SDS011;68210;52.032;4.634;2023-05-07T08:19:48;14.02;;;10.35;;
78858;SDS011;68210;52.032;4.634;2023-05-07T08:21:49;16.98;;;11.00;;
78858;SDS011;68210;52.032;4.634;2023-05-07T08:23:49;16.90;;;11.95;;
78858;SDS011;68210;52.032;4.634;2023-05-07T08:25:49;17.13;;;12.52;;
78858;SDS011;68210;52.032;4.634;2023-05-07T08:27:51;15.82;;;10.55;;
78858;SDS011;68210;52.032;4.634;2023-05-07T08:29:51;19.63;;;12.13;;
78858;SDS011;68210;52.032;4.634;2023-05-07T08:31:52;15.48;;;11.05;;
78858;SDS011;68210;52.032;4.634;2023-05-07T08:33:52;14.73;;;10.93;;
78858;SDS011;68210;52.032;4.634;2023-05-07T08:35:52;14.18;;;10.70;;
78858;SDS011;68210;52.032;4.634;2023-05-07T08:37:53;19.73;;;12.98;;
78858;SDS011;68210;52.032;4.634;2023-05-07T08:39:53;16.55;;;11.52;;
78858;SDS011;68210;52.032;4.634;2023-05-07T08:44:16;19.05;;;10.90;;
78858;SDS011;68210;52.032;4.634;2023-05-07T08:46:18;16.13;;;11.18;;
78858;SDS011;68210;52.032;4.634;2023-05-07T08:48:21;17.85;;;11.07;;
78858;SDS011;68210;52.032;4.634;2023-05-07T08:50:26;17.30;;;12.07;;
78858;SDS011;68210;52.032;4.634;2023-05-07T08:52:26;18.63;;;12.57;;
78858;SDS011;68210;52.032;4.634;2023-05-07T08:54:27;16.85;;;9.55;;
78858;SDS011;68210;52.032;4.634;2023-05-07T08:56:29;15.48;;;9.75;;
78858;SDS011;68210;52.032;4.634;2023-05-07T08:58:29;18.77;;;13.85;;
78858;SDS011;68210;52.032;4.634;2023-05-07T09:00:30;16.67;;;9.95;;
78858;SDS011;68210;52.032;4.634;2023-05-07T09:02:30;14.80;;;9.90;;
78858;SDS011;68210;52.032;4.634;2023-05-07T09:04:31;12.82;;;9.30;;
78858;SDS011;68210;52.032;4.634;2023-05-07T09:06:31;15.85;;;10.60;;
78858;SDS011;68210;52.032;4.634;2023-05-07T09:08:33;12.52;;;8.00;;
78858;SDS011;68210;52.032;4.634;2023-05-07T09:10:34;13.48;;;8.45;;
78858;SDS011;68210;52.032;4.634;2023-05-07T09:12:34;14.20;;;9.52;;
78858;SDS011;68210;52.032;4.634;2023-05-07T09:14:36;14.07;;;9.10;;
78858;SDS011;68210;52.032;4.634;2023-05-07T09:16:36;16.38;;;11.32;;
78858;SDS011;68210;52.032;4.634;2023-05-07T09:18:40;17.55;;;10.52;;
78858;SDS011;68210;52.032;4.634;2023-05-07T09:20:41;15.48;;;10.23;;
78858;SDS011;68210;52.032;4.634;2023-05-07T09:22:41;15.57;;;10.98;;
78858;SDS011;68210;52.032;4.634;2023-05-07T09:24:47;13.35;;;9.55;;
78858;SDS011;68210;52.032;4.634;2023-05-07T09:26:48;10.98;;;8.40;;
78858;SDS011;68210;52.032;4.634;2023-05-07T09:28:48;10.75;;;7.13;;
78858;SDS011;68210;52.032;4.634;2023-05-07T09:30:51;9.88;;;7.38;;
78858;SDS011;68210;52.032;4.634;2023-05-07T09:32:51;11.77;;;8.00;;
78858;SDS011;68210;52.032;4.634;2023-05-07T09:34:53;14.63;;;8.18;;
78858;SDS011;68210;52.032;4.634;2023-05-07T09:36:54;11.30;;;8.23;;
78858;SDS011;68210;52.032;4.634;2023-05-07T09:38:54;17.15;;;9.85;;
78858;SDS011;68210;52.032;4.634;2023-05-07T09:43:26;13.80;;;7.93;;
78858;SDS011;68210;52.032;4.634;2023-05-07T09:45:26;16.23;;;9.77;;
78858;SDS011;68210;52.032;4.634;2023-05-07T09:47:27;13.48;;;9.35;;
78858;SDS011;68210;52.032;4.634;2023-05-07T09:49:35;13.48;;;9.95;;
78858;SDS011;68210;52.032;4.634;2023-05-07T09:53:43;12.93;;;8.75;;
78858;SDS011;68210;52.032;4.634;2023-05-07T09:55:46;14.00;;;9.68;;
78858;SDS011;68210;52.032;4.634;2023-05-07T09:57:48;12.43;;;8.77;;
78858;SDS011;68210;52.032;4.634;2023-05-07T09:59:50;12.70;;;8.02;;
78858;SDS011;68210;52.032;4.634;2023-05-07T10:01:52;9.75;;;6.85;;
78858;SDS011;68210;52.032;4.634;2023-05-07T10:03:56;14.80;;;9.13;;
78858;SDS011;68210;52.032;4.634;2023-05-07T10:05:58;11.60;;;7.85;;
78858;SDS011;68210;52.032;4.634;2023-05-07T10:07:59;12.50;;;7.25;;
78858;SDS011;68210;52.032;4.634;2023-05-07T10:10:00;10.63;;;6.43;;
78858;SDS011;68210;52.032;4.634;2023-05-07T10:12:01;10.93;;;6.38;;
78858;SDS011;68210;52.032;4.634;2023-05-07T10:14:02;14.02;;;7.47;;
78858;SDS011;68210;52.032;4.634;2023-05-07T10:16:05;10.15;;;6.28;;
78858;SDS011;68210;52.032;4.634;2023-05-07T10:18:07;13.07;;;6.72;;
78858;SDS011;68210;52.032;4.634;2023-05-07T10:20:08;9.00;;;6.32;;
78858;SDS011;68210;52.032;4.634;2023-05-07T10:22:09;9.77;;;6.13;;
78858;SDS011;68210;52.032;4.634;2023-05-07T10:24:19;7.70;;;5.25;;
78858;SDS011;68210;52.032;4.634;2023-05-07T10:26:23;7.93;;;5.63;;
78858;SDS011;68210;52.032;4.634;2023-05-07T10:28:27;13.30;;;7.35;;
78858;SDS011;68210;52.032;4.634;2023-05-07T10:32:55;10.88;;;7.43;;
78858;SDS011;68210;52.032;4.634;2023-05-07T10:35:06;12.50;;;8.30;;
78858;SDS011;68210;52.032;4.634;2023-05-07T10:39:14;11.98;;;8.00;;
78858;SDS011;68210;52.032;4.634;2023-05-07T10:41:15;11.07;;;6.40;;
78858;SDS011;68210;52.032;4.634;2023-05-07T10:43:16;14.48;;;7.90;;
78858;SDS011;68210;52.032;4.634;2023-05-07T10:45:17;9.82;;;6.70;;
78858;SDS011;68210;52.032;4.634;2023-05-07T10:47:17;9.73;;;6.20;;
78858;SDS011;68210;52.032;4.634;2023-05-07T10:49:18;13.65;;;6.70;;
78858;SDS011;68210;52.032;4.634;2023-05-07T10:51:19;9.15;;;5.47;;
78858;SDS011;68210;52.032;4.634;2023-05-07T10:53:21;10.40;;;5.32;;
78858;SDS011;68210;52.032;4.634;2023-05-07T10:55:24;11.45;;;5.90;;
78858;SDS011;68210;52.032;4.634;2023-05-07T10:59:31;13.48;;;5.93;;
78858;SDS011;68210;52.032;4.634;2023-05-07T11:04:14;8.60;;;5.22;;
78858;SDS011;68210;52.032;4.634;2023-05-07T11:06:15;13.25;;;5.97;;
78858;SDS011;68210;52.032;4.634;2023-05-07T11:08:16;8.80;;;5.80;;
78858;SDS011;68210;52.032;4.634;2023-05-07T11:10:16;10.52;;;5.88;;
78858;SDS011;68210;52.032;4.634;2023-05-07T11:12:17;7.40;;;5.13;;
78858;SDS011;68210;52.032;4.634;2023-05-07T11:14:44;12.68;;;6.30;;
78858;SDS011;68210;52.032;4.634;2023-05-07T11:16:45;11.95;;;6.20;;
78858;SDS011;68210;52.032;4.634;2023-05-07T11:18:47;10.20;;;5.63;;
78858;SDS011;68210;52.032;4.634;2023-05-07T11:20:50;13.93;;;6.53;;
78858;SDS011;68210;52.032;4.634;2023-05-07T11:22:51;10.27;;;7.30;;
78858;SDS011;68210;52.032;4.634;2023-05-07T11:24:53;10.88;;;7.05;;
78858;SDS011;68210;52.032;4.634;2023-05-07T11:26:53;10.85;;;6.25;;
78858;SDS011;68210;52.032;4.634;2023-05-07T11:28:54;10.23;;;6.05;;
78858;SDS011;68210;52.032;4.634;2023-05-07T11:30:55;7.53;;;5.68;;
78858;SDS011;68210;52.032;4.634;2023-05-07T11:32:56;10.02;;;6.53;;
78858;SDS011;68210;52.032;4.634;2023-05-07T11:34:59;11.15;;;6.38;;
78858;SDS011;68210;52.032;4.634;2023-05-07T11:37:00;10.43;;;6.72;;
78858;SDS011;68210;52.032;4.634;2023-05-07T11:39:01;10.27;;;6.65;;
78858;SDS011;68210;52.032;4.634;2023-05-07T11:41:02;8.57;;;5.35;;
78858;SDS011;68210;52.032;4.634;2023-05-07T11:43:10;10.85;;;5.90;;
78858;SDS011;68210;52.032;4.634;2023-05-07T11:45:11;8.02;;;5.25;;
78858;SDS011;68210;52.032;4.634;2023-05-07T11:47:12;8.68;;;5.60;;
78858;SDS011;68210;52.032;4.634;2023-05-07T11:49:18;9.25;;;5.50;;
78858;SDS011;68210;52.032;4.634;2023-05-07T11:51:19;8.88;;;5.10;;
78858;SDS011;68210;52.032;4.634;2023-05-07T11:53:22;9.75;;;5.53;;
78858;SDS011;68210;52.032;4.634;2023-05-07T11:55:25;10.82;;;6.40;;
78858;SDS011;68210;52.032;4.634;2023-05-07T11:57:26;8.57;;;5.35;;
78858;SDS011;68210;52.032;4.634;2023-05-07T11:59:27;10.43;;;5.70;;
78858;SDS011;68210;52.032;4.634;2023-05-07T12:01:27;15.00;;;5.93;;
78858;SDS011;68210;52.032;4.634;2023-05-07T12:03:27;10.68;;;6.25;;
78858;SDS011;68210;52.032;4.634;2023-05-07T12:05:28;8.80;;;6.32;;
78858;SDS011;68210;52.032;4.634;2023-05-07T12:07:29;8.35;;;5.30;;
78858;SDS011;68210;52.032;4.634;2023-05-07T12:09:32;10.05;;;5.53;;
78858;SDS011;68210;52.032;4.634;2023-05-07T12:11:32;11.30;;;7.53;;
78858;SDS011;68210;52.032;4.634;2023-05-07T12:13:33;9.60;;;6.60;;
78858;SDS011;68210;52.032;4.634;2023-05-07T12:15:34;10.43;;;6.35;;